createdAt,value
2018-12-13T00:00:31.591Z,-0.30
2018-12-13T00:02:59.166Z,-0.30
2018-12-13T00:05:26.711Z,-0.30
2018-12-13T00:07:54.406Z,-0.30
2018-12-13T00:10:22.043Z,-0.30
2018-12-13T00:12:49.815Z,-0.40
2018-12-13T00:15:19.412Z,-0.30
2018-12-13T00:17:46.950Z,-0.40
2018-12-13T00:20:14.497Z,-0.30
2018-12-13T00:22:42.077Z,-0.30
2018-12-13T00:25:09.619Z,-0.30
2018-12-13T00:27:37.410Z,-0.40
2018-12-13T00:30:05.285Z,-0.40
2018-12-13T00:32:32.827Z,-0.40
2018-12-13T00:35:00.373Z,-0.40
2018-12-13T00:37:27.964Z,-0.40
2018-12-13T00:39:55.507Z,-0.40
2018-12-13T00:42:23.041Z,-0.40
2018-12-13T00:44:50.854Z,-0.50
2018-12-13T00:47:18.591Z,-0.50
2018-12-13T00:49:46.138Z,-0.60
2018-12-13T00:52:13.815Z,-0.60
2018-12-13T00:54:41.883Z,-0.60
2018-12-13T00:57:09.418Z,-0.70
2018-12-13T00:59:37.238Z,-0.80
2018-12-13T01:02:04.778Z,-0.80
2018-12-13T01:04:32.407Z,-1.00
2018-12-13T01:07:00.029Z,-1.00
2018-12-13T01:09:27.576Z,-0.90
2018-12-13T01:11:55.507Z,-0.90
2018-12-13T01:14:23.229Z,-0.90
2018-12-13T01:16:51.036Z,-0.90
2018-12-13T01:19:18.579Z,-0.80
2018-12-13T01:21:46.171Z,-0.70
2018-12-13T01:24:13.705Z,-0.70
2018-12-13T01:26:41.448Z,-0.90
2018-12-13T01:29:09.207Z,-0.90
2018-12-13T01:31:36.756Z,-0.80
2018-12-13T01:34:04.295Z,-0.90
2018-12-13T01:36:31.980Z,-0.90
2018-12-13T01:38:59.514Z,-0.90
2018-12-13T01:41:27.078Z,-0.90
2018-12-13T01:43:54.757Z,-0.80
2018-12-13T01:46:22.296Z,-0.80
2018-12-13T01:48:49.903Z,-0.70
2018-12-13T01:51:17.495Z,-0.70
2018-12-13T01:53:45.039Z,-0.70
2018-12-13T01:56:12.758Z,-0.80
2018-12-13T01:58:40.350Z,-0.70
2018-12-13T02:01:07.932Z,-0.80
2018-12-13T02:03:35.476Z,-0.80
2018-12-13T02:06:03.150Z,-0.70
2018-12-13T02:08:31.090Z,-0.80
2018-12-13T02:10:58.632Z,-0.80
2018-12-13T02:13:26.203Z,-0.70
2018-12-13T02:15:54.064Z,-0.80
2018-12-13T02:18:21.609Z,-0.90
2018-12-13T02:20:49.371Z,-0.80
2018-12-13T02:23:17.257Z,-0.70
2018-12-13T02:25:44.797Z,-0.70
2018-12-13T02:28:12.422Z,-0.70
2018-12-13T02:30:39.968Z,-0.80
2018-12-13T02:33:07.512Z,-0.70
2018-12-13T02:35:35.225Z,-0.80
2018-12-13T02:38:02.765Z,-0.70
2018-12-13T02:40:30.313Z,-0.70
2018-12-13T02:42:57.899Z,-0.70
2018-12-13T02:45:25.449Z,-0.60
2018-12-13T02:47:52.990Z,-0.70
2018-12-13T02:50:20.582Z,-0.80
2018-12-13T02:52:48.118Z,-0.90
2018-12-13T02:55:15.657Z,-0.90
2018-12-13T02:57:43.242Z,-0.90
2018-12-13T03:00:10.774Z,-0.90
2018-12-13T03:02:38.327Z,-0.90
2018-12-13T03:05:05.919Z,-1.00
2018-12-13T03:07:33.457Z,-0.90
2018-12-13T03:10:01.001Z,-0.90
2018-12-13T03:12:28.859Z,-1.00
2018-12-13T03:14:56.474Z,-0.90
2018-12-13T03:17:24.153Z,-0.80
2018-12-13T03:19:51.720Z,-0.80
2018-12-13T03:22:19.766Z,-0.90
2018-12-13T03:24:47.577Z,-0.80
2018-12-13T03:27:15.197Z,-0.80
2018-12-13T03:29:42.846Z,-0.80
2018-12-13T03:32:10.406Z,-0.90
2018-12-13T03:34:38.095Z,-0.80
2018-12-13T03:37:06.052Z,-0.90
2018-12-13T03:39:33.665Z,-0.90
2018-12-13T03:42:01.556Z,-0.90
2018-12-13T03:44:29.095Z,-0.90
2018-12-13T03:46:56.637Z,-1.00
2018-12-13T03:49:24.231Z,-1.10
2018-12-13T03:51:51.779Z,-1.00
2018-12-13T03:54:19.449Z,-1.00
2018-12-13T03:56:47.031Z,-1.00
2018-12-13T03:59:14.619Z,-1.00
2018-12-13T04:01:42.168Z,-1.00
2018-12-13T04:04:09.742Z,-0.90
2018-12-13T04:06:37.286Z,-0.90
2018-12-13T04:09:06.333Z,-0.90
2018-12-13T04:11:33.916Z,-0.90
2018-12-13T04:14:01.459Z,-1.00
2018-12-13T04:16:29.003Z,-1.10
2018-12-13T04:18:56.718Z,-1.10
2018-12-13T04:21:24.262Z,-1.20
2018-12-13T04:23:51.810Z,-1.20
2018-12-13T04:26:19.574Z,-1.20
2018-12-13T04:28:47.105Z,-1.20
2018-12-13T04:31:14.644Z,-1.20
2018-12-13T04:33:42.293Z,-1.10
2018-12-13T04:36:09.826Z,-1.30
2018-12-13T04:38:37.361Z,-1.20
2018-12-13T04:41:05.013Z,-1.20
2018-12-13T04:43:32.890Z,-1.10
2018-12-13T04:46:00.496Z,-1.20
2018-12-13T04:48:28.090Z,-1.20
2018-12-13T04:50:55.734Z,-1.20
2018-12-13T04:53:23.275Z,-1.20
2018-12-13T04:55:50.862Z,-1.20
2018-12-13T04:58:18.394Z,-1.20
2018-12-13T05:00:46.075Z,-1.10
2018-12-13T05:03:13.661Z,-1.20
2018-12-13T05:05:41.198Z,-1.10
2018-12-13T05:08:08.917Z,-1.20
2018-12-13T05:10:50.606Z,-1.20
2018-12-13T05:13:18.851Z,-1.10
2018-12-13T05:15:46.385Z,-1.00
2018-12-13T05:18:13.963Z,-1.00
2018-12-13T05:20:41.724Z,-1.00
2018-12-13T05:23:10.209Z,-1.00
2018-12-13T05:25:37.881Z,-1.00
2018-12-13T05:28:05.428Z,-1.10
2018-12-13T05:30:32.962Z,-1.20
2018-12-13T05:33:00.556Z,-1.20
2018-12-13T05:35:28.285Z,-1.20
2018-12-13T05:37:56.145Z,-1.20
2018-12-13T05:40:23.726Z,-1.20
2018-12-13T05:42:51.298Z,-1.20
2018-12-13T05:45:18.826Z,-1.20
2018-12-13T05:47:46.578Z,-1.30
2018-12-13T05:50:14.124Z,-1.40
2018-12-13T05:52:41.782Z,-1.30
2018-12-13T05:55:09.702Z,-1.20
2018-12-13T05:57:37.242Z,-1.20
2018-12-13T06:00:06.899Z,-1.30
2018-12-13T06:02:34.488Z,-1.30
2018-12-13T06:05:02.034Z,-1.30
2018-12-13T06:07:29.574Z,-1.20
2018-12-13T06:09:57.398Z,-1.20
2018-12-13T06:12:24.938Z,-1.40
2018-12-13T06:14:52.516Z,-1.40
2018-12-13T06:17:20.204Z,-1.40
2018-12-13T06:19:48.041Z,-1.40
2018-12-13T06:22:15.888Z,-1.50
2018-12-13T06:24:43.626Z,-1.40
2018-12-13T06:27:11.259Z,-1.40
2018-12-13T06:29:41.805Z,-1.30
2018-12-13T06:32:08.414Z,-1.30
2018-12-13T06:34:35.960Z,-1.30
2018-12-13T06:37:03.687Z,-1.40
2018-12-13T06:39:31.262Z,-1.40
2018-12-13T06:41:58.812Z,-1.50
2018-12-13T06:44:26.352Z,-1.30
2018-12-13T06:46:53.925Z,-1.20
2018-12-13T06:49:21.468Z,-1.20
2018-12-13T06:51:49.806Z,-1.20
2018-12-13T06:54:17.386Z,-1.10
2018-12-13T06:56:44.966Z,-1.10
2018-12-13T06:59:12.507Z,-1.20
2018-12-13T07:01:40.200Z,-1.20
2018-12-13T07:04:07.742Z,-1.20
2018-12-13T07:06:35.318Z,-1.10
2018-12-13T07:09:04.508Z,-1.10
2018-12-13T07:11:32.177Z,-1.10
2018-12-13T07:13:59.710Z,-1.00
2018-12-13T07:16:27.309Z,-1.00
2018-12-13T07:18:54.850Z,-1.10
2018-12-13T07:21:22.394Z,-1.00
2018-12-13T07:23:50.334Z,-1.00
2018-12-13T07:26:17.888Z,-0.90
2018-12-13T07:28:45.433Z,-0.90
2018-12-13T07:31:13.014Z,-0.80
2018-12-13T07:33:40.556Z,-0.90
2018-12-13T07:36:08.109Z,-1.00
2018-12-13T07:38:35.743Z,-1.00
2018-12-13T07:41:03.283Z,-1.10
2018-12-13T07:43:30.989Z,-1.10
2018-12-13T07:45:58.584Z,-1.10
2018-12-13T07:48:26.921Z,-1.10
2018-12-13T07:50:54.464Z,-1.00
2018-12-13T07:53:22.195Z,-1.00
2018-12-13T07:55:49.742Z,-1.00
2018-12-13T07:58:17.277Z,-0.90
2018-12-13T08:00:44.843Z,-0.80
2018-12-13T08:03:12.380Z,-0.90
2018-12-13T08:05:40.154Z,-0.80
2018-12-13T08:08:07.754Z,-0.90
2018-12-13T08:10:35.304Z,-0.80
2018-12-13T08:13:02.843Z,-0.70
2018-12-13T08:15:30.424Z,-0.70
2018-12-13T08:17:57.962Z,-0.70
2018-12-13T08:20:25.510Z,-0.70
2018-12-13T08:22:53.092Z,-0.70
2018-12-13T08:25:20.990Z,-0.70
2018-12-13T08:27:48.534Z,-0.90
2018-12-13T08:30:16.102Z,-0.80
2018-12-13T08:32:43.642Z,-0.80
2018-12-13T08:35:11.194Z,-0.70
2018-12-13T08:37:38.781Z,-0.80
2018-12-13T08:40:06.319Z,-0.70
2018-12-13T08:42:33.863Z,-0.60
2018-12-13T08:45:01.632Z,-0.50
2018-12-13T08:47:29.985Z,-0.60
2018-12-13T08:49:57.526Z,-0.60
2018-12-13T08:52:25.112Z,-0.60
2018-12-13T08:54:52.657Z,-0.60
2018-12-13T08:57:20.191Z,-0.60
2018-12-13T08:59:47.794Z,-0.80
2018-12-13T09:02:16.944Z,-0.70
2018-12-13T09:04:44.586Z,-0.70
2018-12-13T09:07:12.147Z,-0.60
2018-12-13T09:09:39.816Z,-0.60
2018-12-13T09:12:07.419Z,-0.60
2018-12-13T09:14:34.968Z,-0.60
2018-12-13T09:17:02.570Z,-0.60
2018-12-13T09:19:30.151Z,-0.50
2018-12-13T09:21:57.815Z,-0.40
2018-12-13T09:24:25.473Z,-0.40
2018-12-13T09:26:53.299Z,-0.50
2018-12-13T09:29:20.960Z,-0.40
2018-12-13T09:31:48.550Z,-0.40
2018-12-13T09:34:16.138Z,-0.40
2018-12-13T09:36:44.018Z,-0.40
2018-12-13T09:39:12.038Z,-0.50
2018-12-13T09:41:39.652Z,-0.50
2018-12-13T09:44:09.457Z,-0.40
2018-12-13T09:46:37.274Z,-0.30
2018-12-13T09:49:04.829Z,-0.30
2018-12-13T09:51:32.603Z,-0.30
2018-12-13T09:54:00.381Z,-0.30
2018-12-13T09:56:28.280Z,-0.20
2018-12-13T09:58:55.818Z,-0.30
2018-12-13T10:01:23.422Z,-0.30
2018-12-13T10:03:50.986Z,-0.20
2018-12-13T10:06:18.562Z,-0.20
2018-12-13T10:08:46.462Z,-0.30
2018-12-13T10:11:14.124Z,-0.20
2018-12-13T10:13:41.948Z,-0.20
2018-12-13T10:16:09.815Z,-0.10
2018-12-13T10:18:37.358Z,-0.10
2018-12-13T10:21:04.916Z,-0.20
2018-12-13T10:23:32.516Z,0.00
2018-12-13T10:26:00.050Z,0.00
2018-12-13T10:28:27.707Z,-0.10
2018-12-13T10:30:55.574Z,0.00
2018-12-13T10:33:23.122Z,0.10
2018-12-13T10:35:50.887Z,0.30
2018-12-13T10:38:18.533Z,0.20
2018-12-13T10:40:46.189Z,0.30
2018-12-13T10:43:13.723Z,0.10
2018-12-13T10:45:41.334Z,0.30
2018-12-13T10:48:08.882Z,0.20
2018-12-13T10:50:36.421Z,0.20
2018-12-13T10:53:04.355Z,0.20
2018-12-13T10:55:31.893Z,0.20
2018-12-13T10:57:59.945Z,-0.10
2018-12-13T11:00:33.239Z,0.20
2018-12-13T11:03:25.001Z,0.40
2018-12-13T11:05:59.581Z,0.30
2018-12-13T11:08:27.111Z,0.40
2018-12-13T11:10:54.647Z,0.40
2018-12-13T11:13:22.302Z,0.40
2018-12-13T11:15:49.916Z,0.50
2018-12-13T11:18:17.450Z,0.30
2018-12-13T11:20:45.034Z,0.30
2018-12-13T11:23:12.637Z,0.40
2018-12-13T11:25:40.334Z,0.40
2018-12-13T11:28:19.641Z,0.30
2018-12-13T11:30:47.350Z,0.30
2018-12-13T11:33:14.883Z,0.30
2018-12-13T11:35:42.463Z,0.50
2018-12-13T11:38:10.234Z,0.40
2018-12-13T11:40:37.771Z,0.30
2018-12-13T11:43:05.658Z,0.40
2018-12-13T11:45:33.191Z,0.40
2018-12-13T11:48:00.736Z,0.30
2018-12-13T11:50:28.635Z,0.40
2018-12-13T11:52:56.301Z,0.50
2018-12-13T11:55:40.136Z,0.40
2018-12-13T11:58:07.671Z,0.50
2018-12-13T12:00:35.211Z,0.50
2018-12-13T12:03:02.946Z,0.60
2018-12-13T12:05:30.613Z,0.50
2018-12-13T12:07:58.151Z,0.50
2018-12-13T12:10:25.894Z,0.50
2018-12-13T12:12:53.443Z,0.40
2018-12-13T12:15:21.015Z,0.40
2018-12-13T12:17:48.857Z,0.50
2018-12-13T12:20:16.463Z,0.50
2018-12-13T12:22:44.171Z,0.50
2018-12-13T12:25:11.961Z,0.40
2018-12-13T12:27:39.490Z,0.40
2018-12-13T12:30:07.385Z,0.40
2018-12-13T12:32:35.455Z,0.30
2018-12-13T12:35:03.030Z,0.20
2018-12-13T12:37:30.606Z,0.20
2018-12-13T12:39:58.240Z,0.30
2018-12-13T12:42:25.774Z,0.20
2018-12-13T12:44:53.334Z,0.30
2018-12-13T12:47:21.075Z,0.20
2018-12-13T12:49:48.640Z,0.30
2018-12-13T12:52:16.187Z,0.30
2018-12-13T12:54:43.770Z,0.30
2018-12-13T12:57:11.306Z,0.30
2018-12-13T12:59:38.860Z,0.40
2018-12-13T13:02:06.664Z,0.30
2018-12-13T13:04:34.255Z,0.20
2018-12-13T13:07:01.885Z,0.20
2018-12-13T13:09:29.482Z,0.10
2018-12-13T13:11:57.051Z,0.10
2018-12-13T13:14:24.591Z,0.10
2018-12-13T13:16:52.327Z,0.10
2018-12-13T13:19:19.871Z,0.20
2018-12-13T13:21:47.414Z,0.10
2018-12-13T13:24:14.999Z,0.10
2018-12-13T13:26:42.535Z,0.10
2018-12-13T13:29:10.106Z,0.10
2018-12-13T13:31:37.759Z,0.00
2018-12-13T13:34:05.437Z,-0.10
2018-12-13T13:36:32.994Z,-0.10
2018-12-13T13:39:00.575Z,0.00
2018-12-13T13:41:28.126Z,-0.10
2018-12-13T13:43:55.667Z,0.00
2018-12-13T13:46:23.268Z,-0.10
2018-12-13T13:48:50.813Z,-0.20
2018-12-13T13:51:18.359Z,-0.20
2018-12-13T13:53:45.935Z,-0.10
2018-12-13T13:56:13.474Z,-0.30
2018-12-13T13:58:41.328Z,-0.30
2018-12-13T14:01:08.934Z,-0.40
2018-12-13T14:03:37.954Z,-0.40
2018-12-13T14:06:05.570Z,-0.40
2018-12-13T14:08:33.162Z,-0.30
2018-12-13T14:11:01.052Z,-0.30
2018-12-13T14:13:28.931Z,-0.30
2018-12-13T14:15:56.694Z,-0.30
2018-12-13T14:18:24.664Z,-0.40
2018-12-13T14:20:52.298Z,-0.40
2018-12-13T14:23:20.641Z,-0.50
2018-12-13T14:25:48.433Z,-0.40
2018-12-13T14:28:16.306Z,-0.40
2018-12-13T14:30:43.920Z,-0.40
2018-12-13T14:33:11.496Z,-0.40
2018-12-13T14:35:39.663Z,-0.40
2018-12-13T14:38:07.790Z,-0.50
2018-12-13T14:40:35.582Z,-0.40
2018-12-13T14:43:03.304Z,-0.40
2018-12-13T14:45:30.964Z,-0.40
2018-12-13T14:47:58.532Z,-0.50
2018-12-13T14:50:26.711Z,-0.50
2018-12-13T14:52:54.352Z,-0.50
2018-12-13T14:55:21.921Z,-0.50
2018-12-13T14:57:49.492Z,-0.50
2018-12-13T15:00:17.088Z,-0.60
2018-12-13T15:02:44.634Z,-0.60
2018-12-13T15:05:12.992Z,-0.60
2018-12-13T15:07:40.767Z,-0.60
2018-12-13T15:10:08.961Z,-0.60
2018-12-13T15:12:37.293Z,-0.60
2018-12-13T15:15:05.782Z,-0.60
2018-12-13T15:17:33.623Z,-0.60
2018-12-13T15:20:01.923Z,-0.60
2018-12-13T15:22:30.188Z,-0.60
2018-12-13T15:24:58.720Z,-0.60
2018-12-13T15:27:27.713Z,-0.60
2018-12-13T15:29:56.655Z,-0.60
2018-12-13T15:32:25.977Z,-0.60
2018-12-13T15:34:54.897Z,-0.70
2018-12-13T15:37:25.887Z,-0.70
2018-12-13T15:39:57.370Z,-0.70
2018-12-13T15:42:26.166Z,-0.60
2018-12-13T15:44:56.025Z,-0.70
2018-12-13T15:47:24.412Z,-0.60
2018-12-13T15:49:55.700Z,-0.60
2018-12-13T15:52:24.705Z,-0.60
2018-12-13T15:54:54.107Z,-0.60
2018-12-13T15:57:22.219Z,-0.60
2018-12-13T15:59:50.116Z,-0.70
2018-12-13T16:02:19.836Z,-0.60
2018-12-13T16:04:49.047Z,-0.60
2018-12-13T16:07:16.782Z,-0.60
2018-12-13T16:09:44.622Z,-0.60
2018-12-13T16:12:15.442Z,-0.60
2018-12-13T16:14:46.912Z,-0.60
2018-12-13T16:17:17.244Z,-0.60
2018-12-13T16:19:44.906Z,-0.60
2018-12-13T16:22:13.908Z,-0.60
2018-12-13T16:24:42.192Z,-0.60
2018-12-13T16:27:10.646Z,-0.60
2018-12-13T16:29:38.297Z,-0.70
2018-12-13T16:32:05.886Z,-0.60
2018-12-13T16:34:33.423Z,-0.70
2018-12-13T16:37:01.442Z,-0.70
2018-12-13T16:39:29.289Z,-0.60
2018-12-13T16:41:56.839Z,-0.70
2018-12-13T16:44:26.498Z,-0.70
2018-12-13T16:46:54.839Z,-0.60
2018-12-13T16:49:25.172Z,-0.70
2018-12-13T16:51:54.161Z,-0.70
2018-12-13T16:54:22.650Z,-0.70
2018-12-13T16:56:51.811Z,-0.70
2018-12-13T16:59:19.922Z,-0.70
2018-12-13T17:01:49.067Z,-0.80
2018-12-13T17:04:16.911Z,-0.70
2018-12-13T17:06:44.458Z,-0.80
2018-12-13T17:09:12.078Z,-0.80
2018-12-13T17:11:39.893Z,-0.90
2018-12-13T17:14:07.452Z,-0.80
2018-12-13T17:16:35.421Z,-0.80
2018-12-13T17:19:02.980Z,-0.80
2018-12-13T17:21:30.727Z,-0.80
2018-12-13T17:23:58.682Z,-0.90
2018-12-13T17:26:26.494Z,-0.90
2018-12-13T17:28:54.080Z,-0.90
2018-12-13T17:31:21.775Z,-0.90
2018-12-13T17:33:51.299Z,-0.80
2018-12-13T17:36:19.142Z,-0.90
2018-12-13T17:38:46.817Z,-0.80
2018-12-13T17:41:14.713Z,-0.80
2018-12-13T17:43:42.261Z,-0.90
2018-12-13T17:46:09.866Z,-0.90
2018-12-13T17:48:37.669Z,-0.90
2018-12-13T17:51:05.214Z,-1.00
2018-12-13T17:53:32.851Z,-0.90
2018-12-13T17:56:00.732Z,-1.00
2018-12-13T17:58:28.506Z,-1.00
2018-12-13T18:00:56.702Z,-1.00
2018-12-13T18:03:25.211Z,-1.00
2018-12-13T18:05:52.800Z,-1.00
2018-12-13T18:08:22.445Z,-1.00
2018-12-13T18:10:50.206Z,-1.00
2018-12-13T18:13:19.103Z,-1.00
2018-12-13T18:15:47.064Z,-1.00
2018-12-13T18:18:14.772Z,-1.00
2018-12-13T18:20:43.609Z,-1.10
2018-12-13T18:23:11.581Z,-1.00
2018-12-13T18:25:41.421Z,-0.90
2018-12-13T18:28:09.458Z,-0.90
2018-12-13T18:30:37.124Z,-0.90
2018-12-13T18:33:04.674Z,-1.00
2018-12-13T18:35:33.278Z,-1.00
2018-12-13T18:38:01.549Z,-1.10
2018-12-13T18:40:29.122Z,-1.00
2018-12-13T18:42:57.059Z,-1.00
2018-12-13T18:45:25.780Z,-1.00
2018-12-13T18:47:53.347Z,-1.10
2018-12-13T18:50:21.374Z,-1.10
2018-12-13T18:52:50.591Z,-1.10
2018-12-13T18:55:18.839Z,-1.00
2018-12-13T18:57:46.921Z,-1.10
2018-12-13T19:00:15.598Z,-1.00
2018-12-13T19:02:43.173Z,-1.00
2018-12-13T19:05:12.240Z,-1.00
2018-12-13T19:07:42.301Z,-1.00
2018-12-13T19:10:11.388Z,-1.00
2018-12-13T19:12:41.569Z,-0.90
2018-12-13T19:15:10.960Z,-0.90
2018-12-13T19:17:40.121Z,-1.00
2018-12-13T19:20:08.811Z,-1.00
2018-12-13T19:22:38.496Z,-1.10
2018-12-13T19:25:08.438Z,-1.10
2018-12-13T19:27:37.026Z,-1.00
2018-12-13T19:30:06.413Z,-1.10
2018-12-13T19:32:35.648Z,-1.00
2018-12-13T19:35:04.698Z,-1.00
2018-12-13T19:37:32.426Z,-0.90
2018-12-13T19:40:00.287Z,-0.90
2018-12-13T19:42:28.439Z,-0.90
2018-12-13T19:44:57.286Z,-1.00
2018-12-13T19:47:24.868Z,-0.90
2018-12-13T19:49:52.469Z,-0.90
2018-12-13T19:52:20.890Z,-0.90
2018-12-13T19:54:48.728Z,-0.90
2018-12-13T19:57:18.484Z,-0.80
2018-12-13T19:59:47.457Z,-0.90
2018-12-13T20:02:15.201Z,-0.80
2018-12-13T20:04:44.836Z,-0.90
2018-12-13T20:07:13.600Z,-0.90
2018-12-13T20:09:41.644Z,-1.00
2018-12-13T20:12:11.418Z,-1.00
2018-12-13T20:14:40.503Z,-1.00
2018-12-13T20:17:10.865Z,-1.00
2018-12-13T20:19:39.444Z,-1.10
2018-12-13T20:22:07.103Z,-1.00
2018-12-13T20:24:34.974Z,-1.00
2018-12-13T20:27:02.639Z,-1.10
2018-12-13T20:29:30.408Z,-1.00
2018-12-13T20:31:58.218Z,-0.90
2018-12-13T20:34:25.770Z,-0.80
2018-12-13T20:36:53.321Z,-0.80
2018-12-13T20:39:20.920Z,-0.80
2018-12-13T20:41:48.806Z,-0.80
2018-12-13T20:44:16.355Z,-1.00
2018-12-13T20:46:44.208Z,-1.00
2018-12-13T20:49:12.195Z,-1.00
2018-12-13T20:51:39.900Z,-1.00
2018-12-13T20:54:07.524Z,-1.10
2018-12-13T20:56:35.100Z,-1.00
2018-12-13T20:59:02.814Z,-1.10
2018-12-13T21:01:30.394Z,-1.10
2018-12-13T21:03:57.971Z,-1.00
2018-12-13T21:06:25.559Z,-1.00
2018-12-13T21:08:53.159Z,-1.10
2018-12-13T21:11:21.322Z,-1.00
2018-12-13T21:13:49.010Z,-1.00
2018-12-13T21:16:16.605Z,-1.00
2018-12-13T21:18:44.155Z,-1.00
2018-12-13T21:21:11.707Z,-1.00
2018-12-13T21:23:40.058Z,-1.10
2018-12-13T21:26:07.615Z,-1.00
2018-12-13T21:28:35.224Z,-0.90
2018-12-13T21:31:04.099Z,-0.90
2018-12-13T21:33:31.825Z,-0.90
2018-12-13T21:35:59.795Z,-1.10
2018-12-13T21:38:27.943Z,-1.10
2018-12-13T21:40:55.624Z,-1.10
2018-12-13T21:43:23.632Z,-1.10
2018-12-13T21:45:51.357Z,-1.00
2018-12-13T21:48:19.490Z,-1.00
2018-12-13T21:50:47.405Z,-1.00
2018-12-13T21:53:15.911Z,-1.00
2018-12-13T21:55:43.695Z,-1.00
2018-12-13T21:58:11.662Z,-1.10
2018-12-13T22:00:39.482Z,-1.10
2018-12-13T22:03:07.035Z,-1.10
2018-12-13T22:05:34.694Z,-1.10
2018-12-13T22:08:04.361Z,-1.00
2018-12-13T22:10:32.164Z,-1.00
2018-12-13T22:13:00.442Z,-1.00
2018-12-13T22:15:28.516Z,-1.00
2018-12-13T22:17:56.282Z,-1.00
2018-12-13T22:20:23.830Z,-1.00
2018-12-13T22:22:51.415Z,-1.10
2018-12-13T22:25:19.465Z,-1.10
2018-12-13T22:27:47.158Z,-1.10
2018-12-13T22:30:15.163Z,-1.10
2018-12-13T22:32:42.954Z,-1.00
2018-12-13T22:35:10.615Z,-0.90
2018-12-13T22:37:38.694Z,-1.00
2018-12-13T22:40:06.568Z,-1.10
2018-12-13T22:42:34.271Z,-1.20
2018-12-13T22:45:01.943Z,-1.10
2018-12-13T22:47:29.642Z,-1.10
2018-12-13T22:49:57.591Z,-1.00
2018-12-13T22:52:25.185Z,-1.00
2018-12-13T22:54:52.945Z,-0.90
2018-12-13T22:57:20.482Z,-1.00
2018-12-13T22:59:49.271Z,-1.00
2018-12-13T23:02:16.974Z,-1.10
2018-12-13T23:04:44.514Z,-1.10
2018-12-13T23:07:12.090Z,-1.00
2018-12-13T23:09:39.634Z,-1.00
2018-12-13T23:12:07.197Z,-0.90
2018-12-13T23:14:35.622Z,-1.00
2018-12-13T23:17:03.388Z,-1.00
2018-12-13T23:19:30.940Z,-1.00
2018-12-13T23:21:58.648Z,-0.90
2018-12-13T23:24:26.191Z,-1.00
2018-12-13T23:26:53.944Z,-1.00
2018-12-13T23:29:21.559Z,-0.90
2018-12-13T23:31:49.105Z,-0.90
2018-12-13T23:34:16.648Z,-0.90
2018-12-13T23:36:44.255Z,-0.90
2018-12-13T23:39:12.043Z,-1.00
2018-12-13T23:41:39.615Z,-1.10
2018-12-13T23:44:07.506Z,-1.00
2018-12-13T23:46:35.058Z,-1.10
2018-12-13T23:49:02.599Z,-1.20
2018-12-13T23:51:30.254Z,-1.20
2018-12-13T23:53:57.802Z,-1.10
2018-12-13T23:56:25.346Z,-1.00
2018-12-13T23:58:53.373Z,-1.00
